createdAt,value
2022-11-13T00:00:06.624Z,18.80
2022-11-13T00:02:34.630Z,18.80
2022-11-13T00:05:01.441Z,18.80
2022-11-13T00:07:28.636Z,18.70
2022-11-13T00:09:55.432Z,18.70
2022-11-13T00:12:22.226Z,18.60
2022-11-13T00:14:48.965Z,18.60
2022-11-13T00:17:15.744Z,18.60
2022-11-13T00:19:42.499Z,18.50
2022-11-13T00:22:09.236Z,18.50
2022-11-13T00:24:36.029Z,18.50
2022-11-13T00:27:02.764Z,18.50
2022-11-13T00:29:29.490Z,18.40
2022-11-13T00:31:56.287Z,18.40
2022-11-13T00:37:09.801Z,18.40
2022-11-13T00:39:36.542Z,18.40
2022-11-13T00:42:03.357Z,18.30
2022-11-13T00:44:30.144Z,18.30
2022-11-13T00:46:57.125Z,18.20
2022-11-13T00:49:23.932Z,18.30
2022-11-13T00:51:50.780Z,18.20
2022-11-13T00:54:17.577Z,18.20
2022-11-13T00:56:44.345Z,18.20
2022-11-13T00:59:11.122Z,18.10
2022-11-13T01:01:37.959Z,18.10
2022-11-13T01:04:04.833Z,18.00
2022-11-13T01:06:31.600Z,18.00
2022-11-13T01:09:02.446Z,17.90
2022-11-13T01:11:30.751Z,17.90
2022-11-13T01:13:58.092Z,17.90
2022-11-13T01:16:27.058Z,17.80
2022-11-13T01:18:55.532Z,17.80
2022-11-13T01:21:25.981Z,17.80
2022-11-13T01:23:54.546Z,17.80
2022-11-13T01:26:28.284Z,17.80
2022-11-13T01:28:55.999Z,17.80
2022-11-13T01:31:25.397Z,17.90
2022-11-13T01:33:52.243Z,17.90
2022-11-13T01:36:21.798Z,17.80
2022-11-13T01:38:49.335Z,17.90
2022-11-13T01:41:23.147Z,17.90
2022-11-13T01:43:51.934Z,17.90
2022-11-13T01:46:39.596Z,17.80
2022-11-13T01:49:12.124Z,17.80
2022-11-13T01:51:49.224Z,17.90
2022-11-13T01:54:37.867Z,17.90
2022-11-13T01:57:05.569Z,17.80
2022-11-13T01:59:41.013Z,17.90
2022-11-13T02:02:08.165Z,17.80
2022-11-13T02:04:35.624Z,17.80
2022-11-13T02:07:07.119Z,17.90
2022-11-13T02:09:44.912Z,17.80
2022-11-13T02:12:15.215Z,17.80
2022-11-13T02:14:49.212Z,17.80
2022-11-13T02:17:24.316Z,17.80
2022-11-13T02:19:55.853Z,17.80
2022-11-13T02:22:46.576Z,17.80
2022-11-13T02:25:14.280Z,17.80
2022-11-13T02:27:48.622Z,17.80
2022-11-13T02:30:30.576Z,17.80
2022-11-13T02:32:58.591Z,17.80
2022-11-13T02:35:29.463Z,17.80
2022-11-13T02:37:58.120Z,17.80
2022-11-13T02:40:25.228Z,17.70
2022-11-13T02:42:52.049Z,17.70
2022-11-13T02:45:19.345Z,17.70
2022-11-13T02:47:46.616Z,17.60
2022-11-13T02:50:14.536Z,17.60
2022-11-13T02:52:41.426Z,17.60
2022-11-13T02:55:08.716Z,17.60
2022-11-13T02:57:35.552Z,17.60
2022-11-13T03:00:02.935Z,17.60
2022-11-13T03:02:29.670Z,17.60
2022-11-13T03:05:13.226Z,17.60
2022-11-13T03:07:41.397Z,17.50
2022-11-13T03:10:10.064Z,17.50
2022-11-13T03:12:37.572Z,17.50
2022-11-13T03:15:06.155Z,17.50
2022-11-13T03:17:33.447Z,17.50
2022-11-13T03:20:00.316Z,17.40
2022-11-13T03:22:27.828Z,17.30
2022-11-13T03:24:54.584Z,17.30
2022-11-13T03:27:21.496Z,17.20
2022-11-13T03:29:48.530Z,17.20
2022-11-13T03:32:15.754Z,17.20
2022-11-13T03:34:42.774Z,17.20
2022-11-13T03:37:09.530Z,17.20
2022-11-13T03:39:36.302Z,17.10
2022-11-13T03:42:03.077Z,17.10
2022-11-13T03:44:29.908Z,17.10
2022-11-13T03:46:56.644Z,17.10
2022-11-13T03:49:23.388Z,17.00
2022-11-13T03:51:50.180Z,17.00
2022-11-13T03:54:16.973Z,17.00
2022-11-13T03:56:43.724Z,17.00
2022-11-13T03:59:10.500Z,17.10
2022-11-13T04:01:37.260Z,17.00
2022-11-13T04:04:04.175Z,17.10
2022-11-13T04:06:31.070Z,17.10
2022-11-13T04:08:57.810Z,17.10
2022-11-13T04:11:24.599Z,17.10
2022-11-13T04:13:51.376Z,17.20
2022-11-13T04:16:18.105Z,17.10
2022-11-13T04:18:44.834Z,17.20
2022-11-13T04:21:11.652Z,17.20
2022-11-13T04:23:38.386Z,17.20
2022-11-13T04:26:05.822Z,17.20
2022-11-13T04:28:32.740Z,17.30
2022-11-13T04:30:59.592Z,17.30
2022-11-13T04:33:26.420Z,17.30
2022-11-13T04:35:53.178Z,17.30
2022-11-13T04:38:19.998Z,17.40
2022-11-13T04:40:51.530Z,17.40
2022-11-13T04:43:18.334Z,17.40
2022-11-13T04:45:45.071Z,17.40
2022-11-13T04:48:11.846Z,17.40
2022-11-13T04:50:38.622Z,17.40
2022-11-13T04:53:05.369Z,17.30
2022-11-13T04:55:32.094Z,17.30
2022-11-13T04:57:58.972Z,17.20
2022-11-13T05:00:25.745Z,17.20
2022-11-13T05:02:52.467Z,17.10
2022-11-13T05:05:19.252Z,17.10
2022-11-13T05:07:45.980Z,17.10
2022-11-13T05:10:12.920Z,17.10
2022-11-13T05:12:39.828Z,17.10
2022-11-13T05:15:07.160Z,17.10
2022-11-13T05:17:33.896Z,17.10
2022-11-13T05:20:00.668Z,17.10
2022-11-13T05:22:27.633Z,17.10
2022-11-13T05:24:54.377Z,17.10
2022-11-13T05:27:21.175Z,17.10
2022-11-13T05:29:47.911Z,17.10
2022-11-13T05:32:14.688Z,17.10
2022-11-13T05:34:41.532Z,17.10
2022-11-13T05:37:08.312Z,17.10
2022-11-13T05:39:35.091Z,17.00
2022-11-13T05:42:01.888Z,17.00
2022-11-13T05:44:28.646Z,17.00
2022-11-13T05:46:55.376Z,17.00
2022-11-13T05:49:22.115Z,17.00
2022-11-13T05:51:48.826Z,17.00
2022-11-13T05:54:15.632Z,17.00
2022-11-13T05:56:42.412Z,17.00
2022-11-13T05:59:09.261Z,17.00
2022-11-13T06:01:39.399Z,17.00
2022-11-13T06:04:07.701Z,17.00
2022-11-13T06:06:34.759Z,17.00
2022-11-13T06:09:03.871Z,17.00
2022-11-13T06:11:31.433Z,17.00
2022-11-13T06:13:59.480Z,17.00
2022-11-13T06:16:37.610Z,17.00
2022-11-13T06:19:08.275Z,16.90
2022-11-13T06:21:39.035Z,16.90
2022-11-13T06:24:06.732Z,16.90
2022-11-13T06:26:35.631Z,16.80
2022-11-13T06:29:04.531Z,16.80
2022-11-13T06:31:34.028Z,16.80
2022-11-13T06:34:01.163Z,16.70
2022-11-13T06:36:30.939Z,16.80
2022-11-13T06:38:57.889Z,16.80
2022-11-13T06:41:27.083Z,16.80
2022-11-13T06:43:54.976Z,16.80
2022-11-13T06:46:26.740Z,16.80
2022-11-13T06:48:54.001Z,16.80
2022-11-13T06:51:23.856Z,16.80
2022-11-13T06:53:50.993Z,16.90
2022-11-13T06:56:18.731Z,16.90
2022-11-13T06:58:45.511Z,16.90
2022-11-13T07:01:14.925Z,16.90
2022-11-13T07:03:42.135Z,16.90
2022-11-13T07:06:15.063Z,16.90
2022-11-13T07:08:45.580Z,16.80
2022-11-13T07:11:16.536Z,16.80
2022-11-13T07:13:44.051Z,16.80
2022-11-13T07:16:19.113Z,16.70
2022-11-13T07:18:55.352Z,16.70
2022-11-13T07:21:23.507Z,16.60
2022-11-13T07:23:50.688Z,16.60
2022-11-13T07:26:18.269Z,16.60
2022-11-13T07:28:45.753Z,16.60
2022-11-13T07:31:14.546Z,16.60
2022-11-13T07:33:41.427Z,16.60
2022-11-13T07:36:09.233Z,16.70
2022-11-13T07:38:36.302Z,16.80
2022-11-13T07:41:03.288Z,16.80
2022-11-13T07:43:30.126Z,16.90
2022-11-13T07:45:58.953Z,17.00
2022-11-13T07:48:27.971Z,17.10
2022-11-13T07:50:55.375Z,17.10
2022-11-13T07:53:23.158Z,17.20
2022-11-13T07:55:50.116Z,17.20
2022-11-13T07:58:17.000Z,17.20
2022-11-13T08:00:44.561Z,17.20
2022-11-13T08:03:16.959Z,17.30
2022-11-13T08:05:44.292Z,17.30
2022-11-13T08:08:15.291Z,17.40
2022-11-13T08:10:42.179Z,17.60
2022-11-13T08:13:10.234Z,17.90
2022-11-13T08:15:37.331Z,18.20
2022-11-13T08:18:05.157Z,18.50
2022-11-13T08:20:32.521Z,19.00
2022-11-13T08:23:01.307Z,19.50
2022-11-13T08:25:29.565Z,20.10
2022-11-13T08:27:57.292Z,20.70
2022-11-13T08:30:25.233Z,21.30
2022-11-13T08:32:52.474Z,22.00
2022-11-13T08:35:21.373Z,22.60
2022-11-13T08:37:50.856Z,23.20
2022-11-13T08:40:17.890Z,23.70
2022-11-13T08:42:44.737Z,24.00
2022-11-13T08:45:11.811Z,24.20
2022-11-13T08:47:38.587Z,24.40
2022-11-13T08:50:06.723Z,24.60
2022-11-13T08:52:33.482Z,24.60
2022-11-13T08:55:00.310Z,24.50
2022-11-13T08:57:27.108Z,24.40
2022-11-13T08:59:53.838Z,24.20
2022-11-13T09:02:20.617Z,24.00
2022-11-13T09:04:47.456Z,23.70
2022-11-13T09:07:14.313Z,23.40
2022-11-13T09:09:41.112Z,23.20
2022-11-13T09:12:08.293Z,22.90
2022-11-13T09:14:36.152Z,22.70
2022-11-13T09:17:03.542Z,22.50
2022-11-13T09:19:30.341Z,22.20
2022-11-13T09:21:57.074Z,22.10
2022-11-13T09:24:23.857Z,21.90
2022-11-13T09:26:50.717Z,21.70
2022-11-13T09:29:18.339Z,21.60
2022-11-13T09:31:45.290Z,21.40
2022-11-13T09:34:12.284Z,21.30
2022-11-13T09:36:39.082Z,21.20
2022-11-13T09:39:05.856Z,21.10
2022-11-13T09:41:44.221Z,20.90
2022-11-13T09:44:20.749Z,20.80
2022-11-13T09:47:07.900Z,20.80
2022-11-13T09:49:57.923Z,20.70
2022-11-13T09:52:33.317Z,20.70
2022-11-13T09:55:00.166Z,20.60
2022-11-13T09:57:51.348Z,20.60
2022-11-13T10:00:22.613Z,20.60
2022-11-13T10:02:58.220Z,20.60
2022-11-13T10:05:39.957Z,20.50
2022-11-13T10:08:21.670Z,20.40
2022-11-13T10:10:55.169Z,20.40
2022-11-13T10:13:32.875Z,20.40
2022-11-13T10:16:11.046Z,20.30
2022-11-13T10:18:39.445Z,20.30
2022-11-13T10:21:27.640Z,20.20
2022-11-13T10:23:58.745Z,20.10
2022-11-13T10:26:28.593Z,20.10
2022-11-13T10:29:05.640Z,20.10
2022-11-13T10:31:51.341Z,20.10
2022-11-13T10:34:19.763Z,20.10
2022-11-13T10:37:27.287Z,20.10
2022-11-13T10:39:54.071Z,20.10
2022-11-13T10:42:29.175Z,20.10
2022-11-13T10:45:00.979Z,20.10
2022-11-13T10:48:01.910Z,20.10
2022-11-13T10:50:27.988Z,20.00
2022-11-13T10:52:57.059Z,20.00
2022-11-13T10:55:39.718Z,20.00
2022-11-13T10:58:15.044Z,19.90
2022-11-13T11:00:49.238Z,19.90
2022-11-13T11:03:17.213Z,19.90
2022-11-13T11:05:57.256Z,19.90
2022-11-13T11:08:33.722Z,19.90
2022-11-13T11:11:21.912Z,19.80
2022-11-13T11:13:48.827Z,19.80
2022-11-13T11:16:21.883Z,19.90
2022-11-13T11:19:04.752Z,19.90
2022-11-13T11:21:36.456Z,19.90
2022-11-13T11:24:09.314Z,19.90
2022-11-13T11:26:42.302Z,19.90
2022-11-13T11:29:33.686Z,19.90
2022-11-13T11:32:28.049Z,19.90
2022-11-13T11:35:13.103Z,19.90
2022-11-13T11:37:59.411Z,19.90
2022-11-13T11:40:31.058Z,20.00
2022-11-13T11:43:13.008Z,20.00
2022-11-13T11:45:44.693Z,20.00
2022-11-13T11:48:15.184Z,20.00
2022-11-13T11:50:54.168Z,20.10
2022-11-13T11:53:58.698Z,20.10
2022-11-13T11:56:37.250Z,20.20
2022-11-13T11:59:12.296Z,20.10
2022-11-13T12:02:06.288Z,20.20
2022-11-13T12:04:45.998Z,20.20
2022-11-13T12:07:26.665Z,20.20
2022-11-13T12:10:01.992Z,20.20
2022-11-13T12:12:31.593Z,20.20
2022-11-13T12:15:24.527Z,20.30
2022-11-13T12:18:25.225Z,20.30
2022-11-13T12:21:10.486Z,20.30
2022-11-13T12:23:46.895Z,20.30
2022-11-13T12:26:43.837Z,20.30
2022-11-13T12:29:52.165Z,20.30
2022-11-13T12:32:59.669Z,20.30
2022-11-13T12:35:27.508Z,20.30
2022-11-13T12:38:15.220Z,20.40
2022-11-13T12:40:46.811Z,20.30
2022-11-13T12:43:37.681Z,20.30
2022-11-13T12:46:09.370Z,20.30
2022-11-13T12:48:39.427Z,20.40
2022-11-13T12:51:09.387Z,20.40
2022-11-13T12:53:53.580Z,20.40
2022-11-13T12:56:27.545Z,20.40
2022-11-13T12:59:30.931Z,20.40
2022-11-13T13:02:07.264Z,20.40
2022-11-13T13:04:40.016Z,20.50
2022-11-13T13:07:44.147Z,20.50
2022-11-13T13:10:20.225Z,20.50
2022-11-13T13:13:04.778Z,20.50
2022-11-13T13:15:49.265Z,20.50
2022-11-13T13:18:19.221Z,20.50
2022-11-13T13:20:58.735Z,20.50
2022-11-13T13:23:32.612Z,20.50
2022-11-13T13:26:21.162Z,20.50
2022-11-13T13:28:54.335Z,20.50
2022-11-13T13:31:35.911Z,20.50
2022-11-13T13:34:40.148Z,20.50
2022-11-13T13:37:40.711Z,20.50
2022-11-13T13:40:16.530Z,20.40
2022-11-13T13:43:09.754Z,20.40
2022-11-13T13:46:08.100Z,20.40
2022-11-13T13:48:40.402Z,20.30
2022-11-13T13:51:28.118Z,20.40
2022-11-13T13:53:57.133Z,20.30
2022-11-13T13:56:25.347Z,20.20
2022-11-13T13:58:52.656Z,20.20
2022-11-13T14:01:35.093Z,20.10
2022-11-13T14:04:19.501Z,20.10
2022-11-13T14:07:00.848Z,20.00
2022-11-13T14:09:29.058Z,20.00
2022-11-13T14:11:58.782Z,19.90
2022-11-13T14:14:25.875Z,19.90
2022-11-13T14:16:55.228Z,19.90
2022-11-13T14:19:22.744Z,19.90
2022-11-13T14:21:53.746Z,19.90
2022-11-13T14:24:29.271Z,19.80
2022-11-13T14:26:57.503Z,19.80
2022-11-13T14:29:49.196Z,19.80
2022-11-13T14:32:25.555Z,19.80
2022-11-13T14:34:55.072Z,19.80
2022-11-13T14:37:35.976Z,19.80
2022-11-13T14:40:10.947Z,19.70
2022-11-13T14:42:38.834Z,19.70
2022-11-13T14:45:21.413Z,19.70
2022-11-13T14:47:57.429Z,19.70
2022-11-13T14:50:28.834Z,19.70
2022-11-13T14:53:07.367Z,19.70
2022-11-13T14:55:39.064Z,19.60
2022-11-13T14:58:06.194Z,19.60
2022-11-13T15:00:36.296Z,19.60
2022-11-13T15:03:06.526Z,19.60
2022-11-13T15:05:33.459Z,19.60
2022-11-13T15:08:00.628Z,19.60
2022-11-13T15:10:29.356Z,19.60
2022-11-13T15:12:56.171Z,19.50
2022-11-13T15:15:30.454Z,19.60
2022-11-13T15:17:57.399Z,19.50
2022-11-13T15:20:28.875Z,19.50
2022-11-13T15:22:57.002Z,19.50
2022-11-13T15:25:25.096Z,19.50
2022-11-13T15:27:51.960Z,19.50
2022-11-13T15:30:19.586Z,19.40
2022-11-13T15:32:46.495Z,19.40
2022-11-13T15:35:18.232Z,19.40
2022-11-13T15:37:45.444Z,19.40
2022-11-13T15:40:14.215Z,19.40
2022-11-13T15:42:41.299Z,19.30
2022-11-13T15:45:14.697Z,19.30
2022-11-13T15:47:42.019Z,19.30
2022-11-13T15:50:15.152Z,19.30
2022-11-13T15:52:45.998Z,19.30
2022-11-13T15:55:30.580Z,19.30
2022-11-13T15:57:58.534Z,19.20
2022-11-13T16:00:27.290Z,19.20
2022-11-13T16:02:56.216Z,19.20
2022-11-13T16:05:25.618Z,19.20
2022-11-13T16:07:53.663Z,19.20
2022-11-13T16:10:22.177Z,19.20
2022-11-13T16:12:49.028Z,19.10
2022-11-13T16:15:17.387Z,19.10
2022-11-13T16:17:51.757Z,19.10
2022-11-13T16:20:18.973Z,19.10
2022-11-13T16:22:46.395Z,19.10
2022-11-13T16:25:19.091Z,19.10
2022-11-13T16:27:46.330Z,19.10
2022-11-13T16:30:15.590Z,19.00
2022-11-13T16:32:42.475Z,19.00
2022-11-13T16:35:13.824Z,19.00
2022-11-13T16:37:40.932Z,19.00
2022-11-13T16:40:26.935Z,19.00
2022-11-13T16:42:54.446Z,18.90
2022-11-13T16:45:22.015Z,18.90
2022-11-13T16:47:50.704Z,18.90
2022-11-13T16:50:20.745Z,18.90
2022-11-13T16:52:47.891Z,18.90
2022-11-13T16:55:15.008Z,18.90
2022-11-13T16:57:42.296Z,18.90
2022-11-13T17:00:14.154Z,18.80
2022-11-13T17:02:41.268Z,18.80
2022-11-13T17:05:12.664Z,18.80
2022-11-13T17:07:39.476Z,18.80
2022-11-13T17:12:54.434Z,18.80
2022-11-13T17:15:21.749Z,18.80
2022-11-13T17:17:48.671Z,18.70
2022-11-13T17:20:18.311Z,18.70
2022-11-13T17:22:48.546Z,18.70
2022-11-13T17:25:17.234Z,18.70
2022-11-13T17:27:44.108Z,18.70
2022-11-13T17:30:14.182Z,18.60
2022-11-13T17:32:41.047Z,18.60
2022-11-13T17:35:09.401Z,18.60
2022-11-13T17:37:36.251Z,18.60
2022-11-13T17:40:03.329Z,18.50
2022-11-13T17:42:30.199Z,18.50
2022-11-13T17:44:56.996Z,18.50
2022-11-13T17:47:23.742Z,18.50
2022-11-13T17:49:50.530Z,18.50
2022-11-13T17:52:17.532Z,18.50
2022-11-13T17:54:44.362Z,18.50
2022-11-13T17:57:11.451Z,18.50
2022-11-13T17:59:38.371Z,18.50
2022-11-13T18:02:05.272Z,18.50
2022-11-13T18:04:32.118Z,18.50
2022-11-13T18:06:58.960Z,18.50
2022-11-13T18:09:25.793Z,18.50
2022-11-13T18:11:52.602Z,18.50
2022-11-13T18:14:19.475Z,18.40
2022-11-13T18:16:46.448Z,18.40
2022-11-13T18:19:13.315Z,18.40
2022-11-13T18:21:40.919Z,18.40
2022-11-13T18:24:13.255Z,18.40
2022-11-13T18:26:40.660Z,18.40
2022-11-13T18:29:08.077Z,18.30
2022-11-13T18:31:34.954Z,18.30
2022-11-13T18:34:04.295Z,18.30
2022-11-13T18:36:34.962Z,18.30
2022-11-13T18:39:03.254Z,18.30
2022-11-13T18:41:30.878Z,18.30
2022-11-13T18:43:57.819Z,18.30
2022-11-13T18:46:25.328Z,18.30
2022-11-13T18:48:52.313Z,18.30
2022-11-13T18:51:22.752Z,18.30
2022-11-13T18:53:51.032Z,18.30
2022-11-13T18:56:22.405Z,18.30
2022-11-13T18:58:50.421Z,18.30
2022-11-13T19:01:38.249Z,18.30
2022-11-13T19:04:22.385Z,18.20
2022-11-13T19:06:50.178Z,18.30
2022-11-13T19:09:18.196Z,18.20
2022-11-13T19:11:45.734Z,18.20
2022-11-13T19:14:17.000Z,18.20
2022-11-13T19:16:44.181Z,18.20
2022-11-13T19:19:18.445Z,18.20
2022-11-13T19:21:46.074Z,18.20
2022-11-13T19:24:14.664Z,18.20
2022-11-13T19:26:42.695Z,18.10
2022-11-13T19:29:09.818Z,18.10
2022-11-13T19:31:36.666Z,18.10
2022-11-13T19:34:06.091Z,18.10
2022-11-13T19:36:33.710Z,18.10
2022-11-13T19:39:00.543Z,18.10
2022-11-13T19:41:29.151Z,18.00
2022-11-13T19:43:59.520Z,18.10
2022-11-13T19:46:26.640Z,18.00
2022-11-13T19:48:53.558Z,18.00
2022-11-13T19:51:22.969Z,18.00
2022-11-13T19:53:58.197Z,17.90
2022-11-13T19:56:28.231Z,17.90
2022-11-13T19:58:55.559Z,17.90
2022-11-13T20:01:27.600Z,17.80
2022-11-13T20:04:02.258Z,17.80
2022-11-13T20:06:31.784Z,17.80
2022-11-13T20:08:59.485Z,17.80
2022-11-13T20:11:26.304Z,17.80
2022-11-13T20:13:54.969Z,17.80
2022-11-13T20:16:23.525Z,17.70
2022-11-13T20:18:51.201Z,17.70
2022-11-13T20:21:25.342Z,17.70
2022-11-13T20:23:54.857Z,17.60
2022-11-13T20:26:21.653Z,17.70
2022-11-13T20:28:48.485Z,17.60
2022-11-13T20:31:22.156Z,17.60
2022-11-13T20:33:54.340Z,17.60
2022-11-13T20:36:21.770Z,17.60
2022-11-13T20:38:55.952Z,17.50
2022-11-13T20:41:24.183Z,17.50
2022-11-13T20:43:52.332Z,17.40
2022-11-13T20:46:20.585Z,17.40
2022-11-13T20:48:47.702Z,17.50
2022-11-13T20:51:22.545Z,17.40
2022-11-13T20:53:50.038Z,17.40
2022-11-13T20:56:18.596Z,17.40
2022-11-13T20:58:46.050Z,17.40
2022-11-13T21:01:16.752Z,17.40
2022-11-13T21:03:44.901Z,17.40
2022-11-13T21:06:17.782Z,17.40
2022-11-13T21:08:44.883Z,17.40
2022-11-13T21:11:19.165Z,17.40
2022-11-13T21:13:47.399Z,17.40
2022-11-13T21:16:14.145Z,17.40
2022-11-13T21:18:41.024Z,17.40
2022-11-13T21:21:13.782Z,17.40
2022-11-13T21:23:40.549Z,17.40
2022-11-13T21:26:09.153Z,17.40
2022-11-13T21:28:36.668Z,17.40
2022-11-13T21:31:10.511Z,17.40
2022-11-13T21:33:41.661Z,17.40
2022-11-13T21:36:22.576Z,17.40
2022-11-13T21:38:50.915Z,17.40
2022-11-13T21:41:26.647Z,17.40
2022-11-13T21:44:04.677Z,17.40
2022-11-13T21:46:37.024Z,17.40
2022-11-13T21:49:06.961Z,17.40
2022-11-13T21:51:35.644Z,17.40
2022-11-13T21:54:02.875Z,17.40
2022-11-13T21:56:30.955Z,17.40
2022-11-13T21:58:57.936Z,17.40
2022-11-13T22:01:25.970Z,17.40
2022-11-13T22:03:53.784Z,17.30
2022-11-13T22:06:24.850Z,17.30
2022-11-13T22:09:03.357Z,17.30
2022-11-13T22:11:33.882Z,17.30
2022-11-13T22:14:01.168Z,17.30
2022-11-13T22:16:29.796Z,17.30
2022-11-13T22:19:01.824Z,17.30
2022-11-13T22:21:29.430Z,17.30
2022-11-13T22:23:56.895Z,17.30
2022-11-13T22:26:25.582Z,17.30
2022-11-13T22:28:53.460Z,17.30
2022-11-13T22:31:22.689Z,17.30
2022-11-13T22:33:54.573Z,17.30
2022-11-13T22:36:27.055Z,17.30
2022-11-13T22:38:54.527Z,17.30
2022-11-13T22:41:28.369Z,17.30
2022-11-13T22:43:57.132Z,17.30
2022-11-13T22:46:27.015Z,17.20
2022-11-13T22:48:55.851Z,17.20
2022-11-13T22:51:47.904Z,17.20
2022-11-13T22:54:14.959Z,17.20
2022-11-13T22:56:42.164Z,17.20
2022-11-13T22:59:11.411Z,17.10
2022-11-13T23:01:39.537Z,17.10
2022-11-13T23:04:08.366Z,17.10
2022-11-13T23:06:36.005Z,17.00
2022-11-13T23:09:04.010Z,17.00
2022-11-13T23:11:37.996Z,17.00
2022-11-13T23:14:07.801Z,17.00
2022-11-13T23:16:34.872Z,17.00
2022-11-13T23:19:02.856Z,17.00
2022-11-13T23:21:30.675Z,16.90
2022-11-13T23:23:58.014Z,16.90
2022-11-13T23:26:25.848Z,16.90
2022-11-13T23:28:52.901Z,16.90
2022-11-13T23:31:20.107Z,16.90
2022-11-13T23:33:46.959Z,16.80
2022-11-13T23:36:14.879Z,16.70
2022-11-13T23:38:42.153Z,16.80
2022-11-13T23:41:10.196Z,16.70
2022-11-13T23:44:07.120Z,16.70
2022-11-13T23:46:23.823Z,16.70
2022-11-13T23:48:50.643Z,16.70
2022-11-13T23:51:17.389Z,16.60
2022-11-13T23:53:44.179Z,16.60
2022-11-13T23:56:11.341Z,16.60
2022-11-13T23:58:38.073Z,16.60
